createdAt,value
2018-04-26T00:01:49.044Z,99.90
2018-04-26T00:04:16.535Z,99.90
2018-04-26T00:06:44.053Z,99.90
2018-04-26T00:09:12.320Z,99.90
2018-04-26T00:11:40.591Z,99.90
2018-04-26T00:14:08.886Z,99.90
2018-04-26T00:16:36.427Z,99.90
2018-04-26T00:19:04.726Z,99.90
2018-04-26T00:21:32.241Z,99.90
2018-04-26T00:23:59.762Z,99.90
2018-04-26T00:26:27.269Z,99.90
2018-04-26T00:28:54.791Z,99.90
2018-04-26T00:31:22.298Z,99.90
2018-04-26T00:33:50.564Z,99.90
2018-04-26T00:36:18.094Z,99.90
2018-04-26T00:38:45.590Z,99.90
2018-04-26T00:41:13.110Z,99.90
2018-04-26T00:43:40.606Z,99.90
2018-04-26T00:46:08.113Z,99.90
2018-04-26T00:48:35.593Z,99.90
2018-04-26T00:51:03.114Z,99.90
2018-04-26T00:53:31.387Z,99.90
2018-04-26T00:55:59.646Z,99.90
2018-04-26T00:58:27.162Z,99.90
2018-04-26T01:00:54.664Z,99.90
2018-04-26T01:03:22.403Z,99.90
2018-04-26T01:05:49.910Z,99.90
2018-04-26T01:08:17.437Z,99.90
2018-04-26T01:10:44.934Z,99.90
2018-04-26T01:13:12.469Z,99.90
2018-04-26T01:15:40.966Z,99.90
2018-04-26T01:18:09.231Z,99.90
2018-04-26T01:20:37.518Z,99.90
2018-04-26T01:23:06.021Z,99.90
2018-04-26T01:25:33.551Z,99.90
2018-04-26T01:28:01.836Z,99.90
2018-04-26T01:30:30.134Z,99.90
2018-04-26T01:32:57.684Z,99.90
2018-04-26T01:35:25.975Z,99.90
2018-04-26T01:37:53.474Z,99.90
2018-04-26T01:40:20.992Z,99.90
2018-04-26T01:42:48.517Z,99.90
2018-04-26T01:45:16.015Z,99.90
2018-04-26T01:47:43.753Z,99.90
2018-04-26T01:50:11.253Z,99.90
2018-04-26T01:52:38.769Z,99.90
2018-04-26T01:55:07.034Z,99.90
2018-04-26T01:57:34.567Z,99.90
2018-04-26T02:00:02.063Z,99.90
2018-04-26T02:02:30.332Z,99.90
2018-04-26T02:04:58.638Z,99.90
2018-04-26T02:07:26.129Z,99.90
2018-04-26T02:12:18.801Z,99.90
2018-04-26T02:14:46.314Z,99.90
2018-04-26T02:17:13.841Z,99.90
2018-04-26T02:19:41.425Z,99.90
2018-04-26T02:22:08.886Z,99.90
2018-04-26T02:24:37.150Z,99.90
2018-04-26T02:27:04.651Z,99.90
2018-04-26T02:29:32.142Z,99.90
2018-04-26T02:31:59.659Z,99.90
2018-04-26T02:34:27.149Z,99.90
2018-04-26T02:36:54.665Z,99.90
2018-04-26T02:39:22.162Z,99.90
2018-04-26T02:41:49.683Z,99.90
2018-04-26T02:44:17.946Z,99.90
2018-04-26T02:46:45.450Z,99.90
2018-04-26T02:49:13.739Z,99.90
2018-04-26T02:51:41.226Z,99.90
2018-04-26T02:54:08.750Z,99.90
2018-04-26T02:56:36.237Z,99.90
2018-04-26T02:59:03.765Z,99.90
2018-04-26T03:01:31.267Z,99.90
2018-04-26T03:03:58.788Z,99.90
2018-04-26T03:06:26.333Z,99.90
2018-04-26T03:08:53.836Z,99.90
2018-04-26T03:11:21.347Z,99.90
2018-04-26T03:13:48.860Z,99.90
2018-04-26T03:16:16.381Z,99.90
2018-04-26T03:18:43.891Z,99.90
2018-04-26T03:21:13.095Z,99.90
2018-04-26T03:23:40.588Z,99.90
2018-04-26T03:26:08.110Z,99.90
2018-04-26T03:28:35.615Z,99.90
2018-04-26T03:31:03.147Z,99.90
2018-04-26T03:33:30.651Z,99.90
2018-04-26T03:35:58.154Z,99.90
2018-04-26T03:38:26.449Z,99.90
2018-04-26T03:40:53.951Z,99.90
2018-04-26T03:43:21.471Z,99.90
2018-04-26T03:45:48.989Z,99.90
2018-04-26T03:48:16.529Z,99.90
2018-04-26T03:50:44.029Z,99.90
2018-04-26T03:53:12.307Z,99.90
2018-04-26T03:55:39.829Z,99.90
2018-04-26T03:58:07.328Z,99.90
2018-04-26T04:00:47.321Z,99.90
2018-04-26T04:03:26.692Z,99.90
2018-04-26T04:08:55.406Z,99.90
2018-04-26T04:11:22.906Z,99.90
2018-04-26T04:13:50.444Z,99.90
2018-04-26T04:16:17.941Z,99.90
2018-04-26T04:18:46.217Z,99.90
2018-04-26T04:21:13.729Z,99.90
2018-04-26T04:23:41.221Z,99.90
2018-04-26T04:26:11.172Z,99.90
2018-04-26T04:28:38.693Z,99.90
2018-04-26T04:31:06.946Z,99.90
2018-04-26T04:33:34.476Z,99.90
2018-04-26T04:36:01.980Z,99.90
2018-04-26T04:38:30.279Z,99.90
2018-04-26T04:40:57.793Z,99.90
2018-04-26T04:43:25.310Z,99.90
2018-04-26T04:45:52.797Z,99.90
2018-04-26T04:48:20.287Z,99.90
2018-04-26T04:50:48.559Z,99.90
2018-04-26T04:53:16.065Z,99.90
2018-04-26T04:55:51.469Z,99.90
2018-04-26T04:58:19.092Z,99.90
2018-04-26T05:00:47.646Z,99.90
2018-04-26T05:03:15.219Z,99.90
2018-04-26T05:05:43.510Z,99.90
2018-04-26T05:08:11.025Z,99.90
2018-04-26T05:10:39.308Z,99.90
2018-04-26T05:13:07.086Z,99.90
2018-04-26T05:15:34.585Z,99.90
2018-04-26T05:18:03.101Z,99.90
2018-04-26T05:20:30.851Z,99.90
2018-04-26T05:22:58.386Z,99.90
2018-04-26T05:25:25.881Z,99.90
2018-04-26T05:27:54.169Z,99.90
2018-04-26T05:30:23.018Z,99.90
2018-04-26T05:32:50.703Z,99.90
2018-04-26T05:35:18.261Z,99.90
2018-04-26T05:37:45.761Z,99.90
2018-04-26T05:40:13.276Z,99.90
2018-04-26T05:42:40.801Z,99.90
2018-04-26T05:45:08.325Z,99.90
2018-04-26T05:47:36.578Z,99.90
2018-04-26T05:50:04.087Z,99.90
2018-04-26T05:52:31.609Z,99.90
2018-04-26T05:54:59.871Z,99.90
2018-04-26T05:57:27.383Z,99.90
2018-04-26T05:59:54.898Z,99.90
2018-04-26T06:02:23.190Z,99.90
2018-04-26T06:04:53.690Z,99.90
2018-04-26T06:07:21.221Z,99.90
2018-04-26T06:09:48.746Z,99.90
2018-04-26T06:12:17.013Z,99.90
2018-04-26T06:14:45.317Z,99.90
2018-04-26T06:17:12.861Z,99.90
2018-04-26T06:19:40.346Z,99.90
2018-04-26T06:22:07.853Z,99.90
2018-04-26T06:24:35.358Z,99.90
2018-04-26T06:27:02.988Z,99.90
2018-04-26T06:29:30.630Z,99.90
2018-04-26T06:31:58.191Z,99.90
2018-04-26T06:34:25.702Z,99.90
2018-04-26T06:36:53.243Z,99.90
2018-04-26T06:39:21.510Z,99.90
2018-04-26T06:41:49.810Z,99.90
2018-04-26T06:44:17.319Z,99.90
2018-04-26T06:46:44.874Z,99.90
2018-04-26T06:49:12.443Z,99.90
2018-04-26T06:51:39.956Z,99.90
2018-04-26T06:54:07.504Z,99.90
2018-04-26T06:56:35.010Z,99.90
2018-04-26T06:59:02.531Z,99.90
2018-04-26T07:01:30.039Z,99.90
2018-04-26T07:03:57.534Z,99.90
2018-04-26T07:06:25.889Z,99.90
2018-04-26T07:08:53.397Z,99.90
2018-04-26T07:11:20.928Z,99.90
2018-04-26T07:13:49.235Z,99.90
2018-04-26T07:16:16.724Z,99.90
2018-04-26T07:18:44.245Z,99.90
2018-04-26T07:21:11.762Z,99.90
2018-04-26T07:23:39.303Z,99.90
2018-04-26T07:26:06.802Z,99.90
2018-04-26T07:28:35.566Z,99.90
2018-04-26T07:31:03.085Z,99.90
2018-04-26T07:33:30.835Z,99.90
2018-04-26T07:35:58.361Z,99.90
2018-04-26T07:38:25.873Z,99.90
2018-04-26T07:40:53.379Z,99.90
2018-04-26T07:43:20.915Z,99.90
2018-04-26T07:45:48.415Z,99.90
2018-04-26T07:48:16.709Z,99.90
2018-04-26T07:50:44.229Z,99.90
2018-04-26T07:53:11.816Z,99.90
2018-04-26T07:55:39.282Z,99.90
2018-04-26T07:58:06.801Z,99.90
2018-04-26T08:00:34.331Z,99.90
2018-04-26T08:03:01.851Z,99.90
2018-04-26T08:05:30.136Z,99.90
2018-04-26T08:07:58.433Z,99.90
2018-04-26T08:10:25.939Z,99.90
2018-04-26T08:12:53.471Z,99.90
2018-04-26T08:15:20.991Z,99.90
2018-04-26T08:17:48.510Z,99.90
2018-04-26T08:20:16.034Z,99.90
2018-04-26T08:22:43.526Z,99.90
2018-04-26T08:25:11.055Z,99.90
2018-04-26T08:27:38.557Z,99.90
2018-04-26T08:30:06.061Z,99.90
2018-04-26T08:32:33.590Z,99.90
2018-04-26T08:35:01.858Z,99.90
2018-04-26T08:37:30.169Z,99.90
2018-04-26T08:39:57.686Z,99.90
2018-04-26T08:42:25.185Z,99.90
2018-04-26T08:44:52.710Z,99.90
2018-04-26T08:47:21.003Z,99.90
2018-04-26T08:49:48.519Z,99.90
2018-04-26T08:52:16.086Z,99.90
2018-04-26T08:54:43.549Z,99.90
2018-04-26T08:57:11.098Z,99.90
2018-04-26T08:59:38.620Z,99.90
2018-04-26T09:02:06.171Z,99.90
2018-04-26T09:04:34.437Z,99.90
2018-04-26T09:07:01.959Z,99.90
2018-04-26T09:09:29.482Z,99.90
2018-04-26T09:11:56.996Z,99.90
2018-04-26T09:14:24.571Z,99.90
2018-04-26T09:16:52.293Z,99.90
2018-04-26T09:19:19.891Z,99.90
2018-04-26T09:21:47.424Z,99.90
2018-04-26T09:24:14.951Z,99.90
2018-04-26T09:26:42.478Z,99.90
2018-04-26T09:29:10.036Z,99.90
2018-04-26T09:31:37.553Z,99.90
2018-04-26T09:34:05.090Z,99.90
2018-04-26T09:36:32.591Z,99.90
2018-04-26T09:39:00.132Z,99.90
2018-04-26T09:41:27.645Z,99.90
2018-04-26T09:43:55.917Z,99.90
2018-04-26T09:46:23.441Z,99.90
2018-04-26T09:48:50.967Z,99.90
2018-04-26T09:51:18.499Z,99.90
2018-04-26T09:53:45.999Z,99.90
2018-04-26T09:56:13.504Z,99.90
2018-04-26T09:58:41.027Z,99.90
2018-04-26T10:01:09.505Z,99.90
2018-04-26T10:03:38.826Z,99.90
2018-04-26T10:06:26.998Z,99.90
2018-04-26T10:08:54.556Z,99.90
2018-04-26T10:11:22.269Z,99.90
2018-04-26T10:13:49.774Z,99.90
2018-04-26T10:16:17.303Z,99.90
2018-04-26T10:18:44.794Z,99.90
2018-04-26T10:21:12.337Z,99.90
2018-04-26T10:23:39.834Z,99.90
2018-04-26T10:26:08.108Z,99.90
2018-04-26T10:28:36.384Z,99.90
2018-04-26T10:31:04.685Z,99.90
2018-04-26T10:33:32.208Z,99.90
2018-04-26T10:35:59.754Z,99.90
2018-04-26T10:38:27.261Z,99.90
2018-04-26T10:40:54.759Z,99.90
2018-04-26T10:43:22.278Z,99.90
2018-04-26T10:45:49.801Z,99.90
2018-04-26T10:48:17.324Z,99.90
2018-04-26T10:50:44.862Z,99.90
2018-04-26T10:53:12.367Z,99.90
2018-04-26T10:55:39.873Z,99.90
2018-04-26T10:58:08.173Z,99.90
2018-04-26T11:00:35.681Z,99.90
2018-04-26T11:03:03.243Z,99.90
2018-04-26T11:05:31.595Z,99.90
2018-04-26T11:07:59.095Z,99.90
2018-04-26T11:10:27.373Z,99.90
2018-04-26T11:12:55.659Z,99.90
2018-04-26T11:15:23.952Z,99.90
2018-04-26T11:17:51.471Z,99.90
2018-04-26T11:20:18.977Z,99.90
2018-04-26T11:22:46.500Z,99.90
2018-04-26T11:25:14.023Z,99.90
2018-04-26T11:27:41.536Z,99.90
2018-04-26T11:30:09.816Z,99.90
2018-04-26T11:32:38.099Z,99.90
2018-04-26T11:35:05.605Z,99.90
2018-04-26T11:37:33.110Z,99.90
2018-04-26T11:40:00.654Z,99.90
2018-04-26T11:42:28.932Z,99.90
2018-04-26T11:44:56.450Z,99.90
2018-04-26T11:47:23.954Z,99.90
2018-04-26T11:49:51.489Z,99.90
2018-04-26T11:52:19.010Z,99.90
2018-04-26T11:54:46.513Z,99.90
2018-04-26T11:57:14.006Z,99.90
2018-04-26T11:59:42.293Z,99.90
2018-04-26T12:02:09.794Z,99.90
2018-04-26T12:04:37.308Z,99.90
2018-04-26T12:07:04.983Z,99.90
2018-04-26T12:09:32.510Z,99.90
2018-04-26T12:12:00.031Z,99.90
2018-04-26T12:14:27.559Z,99.90
2018-04-26T12:16:55.076Z,99.90
2018-04-26T12:19:22.616Z,99.90
2018-04-26T12:21:50.198Z,99.90
2018-04-26T12:24:17.741Z,99.90
2018-04-26T12:26:45.230Z,98.80
2018-04-26T12:29:12.797Z,98.10
2018-04-26T12:31:40.275Z,97.80
2018-04-26T12:34:08.125Z,97.20
2018-04-26T12:36:36.426Z,95.50
2018-04-26T12:39:03.953Z,95.40
2018-04-26T12:41:32.239Z,95.10
2018-04-26T12:44:00.530Z,93.80
2018-04-26T12:46:28.259Z,93.60
2018-04-26T12:48:59.438Z,91.00
2018-04-26T12:51:28.356Z,91.90
2018-04-26T12:53:55.922Z,91.80
2018-04-26T12:56:23.898Z,91.70
2018-04-26T12:58:52.891Z,91.10
2018-04-26T13:01:20.409Z,91.00
2018-04-26T13:03:48.318Z,90.00
2018-04-26T13:06:15.869Z,91.50
2018-04-26T13:08:43.369Z,90.40
2018-04-26T13:11:10.895Z,92.60
2018-04-26T13:13:38.410Z,92.50
2018-04-26T13:16:06.714Z,90.80
2018-04-26T13:18:34.249Z,90.70
2018-04-26T13:21:02.540Z,92.30
2018-04-26T13:23:30.850Z,91.10
2018-04-26T13:25:58.395Z,91.10
2018-04-26T13:28:25.979Z,90.80
2018-04-26T13:30:54.332Z,90.80
2018-04-26T13:33:23.102Z,90.80
2018-04-26T13:35:51.411Z,90.60
2018-04-26T13:38:19.021Z,90.50
2018-04-26T13:40:46.616Z,90.10
2018-04-26T13:43:14.308Z,91.50
2018-04-26T13:45:41.900Z,91.50
2018-04-26T13:48:09.529Z,90.90
2018-04-26T13:50:37.944Z,90.00
2018-04-26T13:53:05.516Z,90.00
2018-04-26T13:55:34.353Z,89.00
2018-04-26T13:58:02.074Z,88.10
2018-04-26T14:00:30.421Z,85.60
2018-04-26T14:02:57.967Z,85.30
2018-04-26T14:05:31.563Z,88.70
2018-04-26T14:08:06.759Z,87.10
2018-04-26T14:10:34.316Z,82.10
2018-04-26T14:13:01.843Z,83.20
2018-04-26T14:15:29.390Z,82.50
2018-04-26T14:17:58.361Z,81.60
2018-04-26T14:20:25.944Z,81.00
2018-04-26T14:22:53.525Z,83.10
2018-04-26T14:25:21.139Z,85.30
2018-04-26T14:27:48.650Z,80.60
2018-04-26T14:30:16.170Z,82.30
2018-04-26T14:32:43.694Z,83.30
2018-04-26T14:35:12.343Z,84.80
2018-04-26T14:37:39.878Z,84.60
2018-04-26T14:40:07.409Z,85.00
2018-04-26T14:42:35.684Z,85.80
2018-04-26T14:45:04.032Z,86.90
2018-04-26T14:47:31.557Z,86.60
2018-04-26T14:49:59.199Z,85.80
2018-04-26T14:52:26.807Z,87.00
2018-04-26T14:54:54.367Z,88.10
2018-04-26T14:57:21.932Z,85.10
2018-04-26T14:59:49.450Z,85.40
2018-04-26T15:02:17.024Z,82.80
2018-04-26T15:04:44.526Z,82.60
2018-04-26T15:07:12.087Z,85.80
2018-04-26T15:09:39.789Z,85.40
2018-04-26T15:12:07.328Z,85.10
2018-04-26T15:14:34.944Z,87.50
2018-04-26T15:17:02.525Z,86.30
2018-04-26T15:19:30.022Z,81.80
2018-04-26T15:21:58.359Z,80.40
2018-04-26T15:24:26.666Z,83.00
2018-04-26T15:26:54.979Z,82.40
2018-04-26T15:29:22.583Z,82.20
2018-04-26T15:31:50.307Z,82.10
2018-04-26T15:34:17.940Z,82.30
2018-04-26T15:36:46.082Z,80.80
2018-04-26T15:39:13.694Z,83.40
2018-04-26T15:41:41.252Z,83.60
2018-04-26T15:44:08.901Z,83.10
2018-04-26T15:46:36.541Z,83.40
2018-04-26T15:49:04.133Z,81.70
2018-04-26T15:51:31.805Z,80.20
2018-04-26T15:54:11.100Z,84.30
2018-04-26T15:57:01.022Z,81.50
2018-04-26T15:59:40.440Z,81.40
2018-04-26T16:05:44.387Z,85.40
2018-04-26T16:08:29.605Z,84.80
2018-04-26T16:11:16.958Z,82.70
2018-04-26T16:14:02.203Z,83.30
2018-04-26T16:16:47.373Z,85.10
2018-04-26T16:19:34.407Z,85.20
2018-04-26T16:22:19.620Z,84.90
2018-04-26T16:24:58.938Z,83.20
2018-04-26T16:27:43.244Z,84.90
2018-04-26T16:30:23.576Z,83.30
2018-04-26T16:33:04.795Z,83.20
2018-04-26T16:35:43.958Z,85.90
2018-04-26T16:38:23.437Z,85.30
2018-04-26T16:40:50.953Z,85.20
2018-04-26T16:43:18.470Z,87.20
2018-04-26T16:45:46.005Z,84.60
2018-04-26T16:48:14.308Z,86.50
2018-04-26T16:50:41.806Z,86.50
2018-04-26T16:53:09.323Z,86.40
2018-04-26T16:55:36.828Z,86.10
2018-04-26T16:58:04.322Z,87.60
2018-04-26T17:00:32.607Z,84.80
2018-04-26T17:03:00.137Z,84.70
2018-04-26T17:05:27.995Z,85.60
2018-04-26T17:07:55.522Z,87.00
2018-04-26T17:10:23.066Z,85.80
2018-04-26T17:12:50.602Z,84.80
2018-04-26T17:15:18.948Z,85.50
2018-04-26T17:17:46.427Z,85.30
2018-04-26T17:20:13.935Z,86.20
2018-04-26T17:22:41.427Z,88.10
2018-04-26T17:25:08.953Z,86.00
2018-04-26T17:27:36.464Z,88.40
2018-04-26T17:30:04.182Z,87.80
2018-04-26T17:32:31.695Z,87.30
2018-04-26T17:34:59.964Z,89.20
2018-04-26T17:37:27.511Z,89.10
2018-04-26T17:40:01.938Z,90.30
2018-04-26T17:42:29.481Z,90.40
2018-04-26T17:44:56.993Z,90.10
2018-04-26T17:47:24.499Z,90.50
2018-04-26T17:49:52.034Z,89.90
2018-04-26T17:52:19.537Z,90.70
2018-04-26T17:54:47.058Z,91.40
2018-04-26T17:57:14.554Z,89.20
2018-04-26T17:59:44.860Z,91.70
2018-04-26T18:02:12.397Z,91.50
2018-04-26T18:04:39.897Z,91.30
2018-04-26T18:07:07.421Z,90.90
2018-04-26T18:09:35.034Z,91.80
2018-04-26T18:12:02.499Z,91.40
2018-04-26T18:14:30.807Z,92.50
2018-04-26T18:16:58.313Z,92.50
2018-04-26T18:19:25.838Z,92.30
2018-04-26T18:21:53.351Z,93.40
2018-04-26T18:24:21.627Z,94.10
2018-04-26T18:26:49.168Z,93.70
2018-04-26T18:29:17.469Z,92.50
2018-04-26T18:31:45.056Z,92.50
2018-04-26T18:34:12.581Z,93.00
2018-04-26T18:36:40.092Z,93.10
2018-04-26T18:39:07.671Z,92.90
2018-04-26T18:41:35.169Z,94.90
2018-04-26T18:44:03.695Z,94.60
2018-04-26T18:46:31.256Z,94.50
2018-04-26T18:48:58.833Z,94.80
2018-04-26T18:51:26.445Z,96.30
2018-04-26T18:53:54.004Z,95.20
2018-04-26T18:56:21.576Z,95.30
2018-04-26T18:58:49.144Z,95.90
2018-04-26T19:01:16.707Z,96.00
2018-04-26T19:03:44.236Z,96.10
2018-04-26T19:06:12.504Z,97.10
2018-04-26T19:08:40.030Z,97.10
2018-04-26T19:11:07.588Z,97.10
2018-04-26T19:13:35.213Z,97.80
2018-04-26T19:16:02.743Z,98.00
2018-04-26T19:18:30.274Z,98.80
2018-04-26T19:20:57.846Z,98.20
2018-04-26T19:23:25.341Z,99.60
2018-04-26T19:25:53.620Z,98.40
2018-04-26T19:28:21.933Z,98.50
2018-04-26T19:30:49.455Z,98.40
2018-04-26T19:33:17.802Z,98.70
2018-04-26T19:35:45.330Z,98.70
2018-04-26T19:38:13.071Z,99.30
2018-04-26T19:40:40.634Z,99.60
2018-04-26T19:43:08.182Z,99.90
2018-04-26T19:45:36.531Z,99.90
2018-04-26T19:48:04.084Z,99.90
2018-04-26T19:50:31.662Z,99.90
2018-04-26T19:52:59.190Z,99.90
2018-04-26T19:55:26.698Z,99.90
2018-04-26T19:57:55.021Z,99.90
2018-04-26T20:00:22.542Z,99.90
2018-04-26T20:02:50.076Z,99.90
2018-04-26T20:05:17.596Z,99.90
2018-04-26T20:07:45.120Z,99.90
2018-04-26T20:10:13.419Z,99.60
2018-04-26T20:12:41.010Z,99.50
2018-04-26T20:15:08.582Z,99.40
2018-04-26T20:17:36.148Z,99.10
2018-04-26T20:20:03.676Z,99.90
2018-04-26T20:22:31.255Z,99.90
2018-04-26T20:24:58.782Z,99.90
2018-04-26T20:27:26.337Z,99.90
2018-04-26T20:30:01.210Z,99.70
2018-04-26T20:32:28.745Z,99.60
2018-04-26T20:34:56.283Z,99.20
2018-04-26T20:37:23.817Z,99.20
2018-04-26T20:39:52.446Z,99.50
2018-04-26T20:42:19.964Z,99.40
2018-04-26T20:44:48.366Z,99.90
2018-04-26T20:47:17.065Z,99.90
2018-04-26T20:49:44.615Z,99.90
2018-04-26T20:52:12.134Z,99.90
2018-04-26T20:54:39.755Z,99.90
2018-04-26T20:57:07.215Z,99.90
2018-04-26T20:59:34.725Z,99.90
2018-04-26T21:02:02.268Z,99.90
2018-04-26T21:04:30.013Z,99.90
2018-04-26T21:06:57.559Z,99.90
2018-04-26T21:09:25.070Z,99.90
2018-04-26T21:11:52.575Z,99.90
2018-04-26T21:14:20.111Z,99.90
2018-04-26T21:16:47.650Z,99.90
2018-04-26T21:19:15.189Z,99.90
2018-04-26T21:21:42.703Z,99.90
2018-04-26T21:24:10.215Z,99.90
2018-04-26T21:26:37.767Z,99.90
2018-04-26T21:29:05.305Z,99.90
2018-04-26T21:31:32.831Z,99.90
2018-04-26T21:34:01.186Z,99.90
2018-04-26T21:36:28.726Z,99.90
2018-04-26T21:38:56.251Z,99.90
2018-04-26T21:41:23.837Z,99.90
2018-04-26T21:43:51.364Z,99.90
2018-04-26T21:46:18.878Z,99.90
2018-04-26T21:48:46.407Z,99.90
2018-04-26T21:51:19.585Z,99.90
2018-04-26T21:53:53.570Z,99.90
2018-04-26T21:56:27.481Z,99.90
2018-04-26T21:59:00.798Z,99.90
2018-04-26T22:01:34.024Z,99.90
2018-04-26T22:04:06.419Z,99.90
2018-04-26T22:06:33.926Z,99.90
2018-04-26T22:09:01.455Z,99.90
2018-04-26T22:11:29.735Z,99.90
2018-04-26T22:13:58.064Z,99.90
2018-04-26T22:16:25.569Z,99.90
2018-04-26T22:18:53.842Z,99.90
2018-04-26T22:21:22.131Z,99.90
2018-04-26T22:23:49.642Z,99.90
2018-04-26T22:26:17.162Z,99.90
2018-04-26T22:28:44.681Z,99.90
2018-04-26T22:31:12.232Z,99.90
2018-04-26T22:33:40.533Z,99.90
2018-04-26T22:36:08.058Z,99.90
2018-04-26T22:38:35.591Z,99.90
2018-04-26T22:41:03.115Z,99.90
2018-04-26T22:43:31.387Z,99.90
2018-04-26T22:45:58.912Z,99.90
2018-04-26T22:48:26.452Z,99.90
2018-04-26T22:50:53.959Z,99.90
2018-04-26T22:53:21.477Z,99.90
2018-04-26T22:55:49.007Z,99.90
2018-04-26T22:58:17.317Z,99.90
2018-04-26T23:00:44.819Z,99.90
2018-04-26T23:03:12.344Z,99.90
2018-04-26T23:05:39.842Z,99.90
2018-04-26T23:08:07.348Z,99.90
2018-04-26T23:10:34.849Z,99.90
2018-04-26T23:13:02.333Z,99.90
2018-04-26T23:15:30.629Z,99.90
2018-04-26T23:17:58.129Z,99.90
2018-04-26T23:20:25.653Z,99.90
2018-04-26T23:22:53.928Z,99.90
2018-04-26T23:25:21.458Z,99.90
2018-04-26T23:27:49.719Z,99.90
2018-04-26T23:30:17.225Z,99.90
2018-04-26T23:32:44.758Z,99.90
2018-04-26T23:35:13.045Z,99.90
2018-04-26T23:37:40.581Z,99.90
2018-04-26T23:40:08.091Z,99.90
2018-04-26T23:42:35.609Z,99.90
2018-04-26T23:45:03.885Z,99.90
2018-04-26T23:47:32.158Z,99.90
2018-04-26T23:50:00.447Z,99.90
2018-04-26T23:52:28.710Z,99.90
2018-04-26T23:54:57.013Z,99.90
2018-04-26T23:57:24.516Z,99.90
2018-04-26T23:59:52.020Z,99.90
